Time;durP1;ratioP1;P1;durP2;ratioP2;P2;SDS_P1;SDS_P2;PMS_P1;PMS_P2;Temp;Humidity;BMP_temperature;BMP_pressure;BME280_temperature;BME280_humidity;BME280_pressure;Samples;Min_cycle;Max_cycle;Signal;HPM_P1;HPM_P2
2022/06/15 00:01:13;;;;;;;1.45;0.90;;;25.50;45.50;;;;;;5038873;28;20432;-67
2022/06/15 00:03:38;;;;;;;1.10;0.90;;;25.40;45.50;;;;;;5038685;28;20020;-65
2022/06/15 00:06:10;;;;;;;1.20;0.90;;;25.50;45.50;;;;;;5039465;28;20057;-66
2022/06/15 00:08:37;;;;;;;1.10;0.77;;;25.50;45.50;;;;;;5036807;28;20039;-64
2022/06/15 00:11:15;;;;;;;1.67;0.98;;;25.50;45.50;;;;;;5036854;28;20354;-64
2022/06/15 00:13:41;;;;;;;1.05;0.88;;;25.40;45.50;;;;;;5037559;28;20033;-64
2022/06/15 00:16:07;;;;;;;1.10;0.80;;;25.40;45.50;;;;;;5034022;28;20049;-64
2022/06/15 00:18:34;;;;;;;1.25;0.88;;;25.40;45.50;;;;;;5037402;28;20059;-66
2022/06/15 00:21:00;;;;;;;1.30;0.80;;;25.50;45.50;;;;;;5038677;28;20493;-65
2022/06/15 00:23:28;;;;;;;1.10;0.80;;;25.40;45.50;;;;;;5035559;28;20033;-66
2022/06/15 00:25:54;;;;;;;0.80;0.80;;;25.40;45.50;;;;;;5037673;28;20047;-64
2022/06/15 00:28:21;;;;;;;0.82;0.80;;;25.40;45.50;;;;;;5034696;28;21210;-64
2022/06/15 00:30:51;;;;;;;1.10;0.90;;;25.40;45.50;;;;;;5037012;28;20048;-65
2022/06/15 00:33:21;;;;;;;1.33;1.00;;;25.40;45.50;;;;;;5038410;28;20025;-62
2022/06/15 00:36:00;;;;;;;1.00;0.90;;;25.40;45.50;;;;;;5036754;28;20119;-65
2022/06/15 00:38:29;;;;;;;;;;;25.40;45.50;;;;;;5038549;28;21625;-64
2022/06/15 00:40:55;;;;;;;1.08;0.80;;;25.40;45.50;;;;;;5035976;28;19919;-65
2022/06/15 00:43:37;;;;;;;1.00;0.90;;;25.40;45.40;;;;;;5038899;28;20434;-66
2022/06/15 00:46:31;;;;;;;1.65;0.90;;;25.40;45.50;;;;;;5036749;28;20064;-66
2022/06/15 00:49:24;;;;;;;0.80;0.77;;;25.40;45.40;;;;;;5037625;28;20221;-65
2022/06/15 00:51:53;;;;;;;1.10;0.80;;;25.40;45.50;;;;;;5038394;28;20025;-66
2022/06/15 00:54:21;;;;;;;1.52;1.00;;;25.40;45.40;;;;;;5034366;28;20067;-64
2022/06/15 00:56:47;;;;;;;0.85;0.80;;;25.40;45.40;;;;;;5037987;28;20024;-66
2022/06/15 00:59:28;;;;;;;1.15;0.80;;;25.40;45.50;;;;;;5037825;28;20111;-63
2022/06/15 01:01:54;;;;;;;1.20;0.90;;;25.40;45.50;;;;;;5038546;28;20119;-66
2022/06/15 01:04:21;;;;;;;0.90;0.90;;;25.40;45.50;;;;;;5037606;28;20159;-64
2022/06/15 01:07:15;;;;;;;1.23;0.90;;;25.40;45.50;;;;;;5036566;28;20029;-64
2022/06/15 01:10:01;;;;;;;1.50;0.93;;;25.40;45.40;;;;;;5035221;28;20037;-65
2022/06/15 01:12:45;;;;;;;1.00;0.90;;;25.40;45.40;;;;;;5037601;28;20085;-66
2022/06/15 01:15:27;;;;;;;1.10;0.93;;;25.40;45.50;;;;;;5036122;28;20017;-65
2022/06/15 01:18:11;;;;;;;0.90;0.80;;;25.40;45.40;;;;;;5037721;28;20045;-65
2022/06/15 01:20:52;;;;;;;1.00;0.82;;;25.40;45.50;;;;;;5037586;28;20025;-64
2022/06/15 01:23:52;;;;;;;1.10;1.00;;;25.40;45.50;;;;;;5035494;28;20400;-65
2022/06/15 01:26:51;;;;;;;1.08;0.80;;;25.30;45.40;;;;;;5036383;28;20071;-65
2022/06/15 01:29:39;;;;;;;1.00;0.80;;;25.40;45.40;;;;;;5036978;28;20062;-64
2022/06/15 01:32:24;;;;;;;1.42;0.90;;;25.30;45.40;;;;;;5037665;28;20043;-61
2022/06/15 01:35:12;;;;;;;1.25;0.90;;;25.40;45.40;;;;;;5035691;28;20174;-66
2022/06/15 01:38:20;;;;;;;1.20;0.93;;;25.30;45.40;;;;;;5036899;28;20021;-65
2022/06/15 01:40:51;;;;;;;1.10;0.82;;;25.40;45.40;;;;;;5037769;28;20059;-66
2022/06/15 01:43:21;;;;;;;1.38;0.90;;;25.30;45.40;;;;;;5038106;28;20035;-63
2022/06/15 01:45:49;;;;;;;1.90;0.80;;;25.30;45.40;;;;;;5035862;28;20531;-66
2022/06/15 01:48:17;;;;;;;0.80;0.70;;;25.30;45.40;;;;;;5037495;28;20101;-66
2022/06/15 01:50:52;;;;;;;1.13;0.80;;;25.30;45.40;;;;;;5035038;28;20112;-61
2022/06/15 01:53:23;;;;;;;1.10;0.85;;;25.30;45.30;;;;;;5034565;28;20041;-66
2022/06/15 01:55:54;;;;;;;1.55;0.90;;;25.30;45.40;;;;;;5034028;28;20033;-64
2022/06/15 01:58:24;;;;;;;0.95;0.82;;;25.30;45.40;;;;;;5036908;28;20029;-62
2022/06/15 02:01:00;;;;;;;1.10;0.90;;;25.30;45.40;;;;;;5035371;28;20523;-62
2022/06/15 02:03:35;;;;;;;1.40;0.82;;;25.30;45.40;;;;;;5037306;28;21298;-64
2022/06/15 02:06:22;;;;;;;1.15;0.90;;;25.30;45.40;;;;;;5030720;28;21817;-64
2022/06/15 02:09:04;;;;;;;1.10;1.00;;;25.30;45.40;;;;;;5034077;28;21018;-63
2022/06/15 02:11:32;;;;;;;0.90;0.80;;;25.30;45.50;;;;;;5034631;28;20465;-61
2022/06/15 02:14:16;;;;;;;1.52;1.00;;;25.30;45.40;;;;;;5035615;28;20025;-65
2022/06/15 02:16:47;;;;;;;1.45;1.00;;;25.30;45.40;;;;;;5034720;28;20033;-62
2022/06/15 02:19:17;;;;;;;1.92;1.02;;;25.20;45.40;;;;;;5035879;28;20025;-65
2022/06/15 02:21:45;;;;;;;1.45;1.00;;;25.30;45.50;;;;;;5037314;28;20417;-62
2022/06/15 02:24:14;;;;;;;1.10;0.90;;;25.20;45.40;;;;;;5033940;28;20033;-65
2022/06/15 02:26:41;;;;;;;1.27;0.82;;;25.20;45.40;;;;;;5034759;28;20025;-65
2022/06/15 02:29:21;;;;;;;1.08;0.80;;;25.20;45.40;;;;;;5036894;28;20092;-65
2022/06/15 02:31:46;;;;;;;0.80;0.70;;;25.20;45.40;;;;;;5035786;28;20033;-66
2022/06/15 02:34:12;;;;;;;1.25;0.90;;;25.20;45.40;;;;;;5037815;28;20408;-66
2022/06/15 02:36:38;;;;;;;1.00;0.90;;;25.20;45.40;;;;;;5035934;28;20032;-63
2022/06/15 02:39:06;;;;;;;1.33;0.90;;;25.20;45.40;;;;;;5035229;28;20104;-65
2022/06/15 02:41:32;;;;;;;0.88;0.80;;;25.30;45.40;;;;;;5037350;28;20409;-62
2022/06/15 02:43:59;;;;;;;0.90;0.80;;;25.20;45.40;;;;;;5036470;28;20071;-64
2022/06/15 02:46:27;;;;;;;1.20;0.90;;;25.20;45.40;;;;;;5035298;28;20051;-66
2022/06/15 02:48:53;;;;;;;1.13;0.90;;;25.20;45.40;;;;;;5036734;28;20778;-64
2022/06/15 02:51:57;;;;;;;1.15;0.90;;;25.20;45.40;;;;;;5036809;28;20086;-64
2022/06/15 02:54:39;;;;;;;1.40;1.00;;;25.20;45.40;;;;;;5034289;28;20094;-66
2022/06/15 02:57:05;;;;;;;1.10;0.90;;;25.20;45.40;;;;;;5036593;28;20044;-64
2022/06/15 02:59:30;;;;;;;0.93;0.80;;;25.20;45.40;;;;;;5035326;28;20033;-62
2022/06/15 03:01:57;;;;;;;0.77;0.70;;;25.20;45.40;;;;;;5035991;28;20527;-65
2022/06/15 03:04:23;;;;;;;1.05;0.93;;;25.20;45.40;;;;;;5035559;28;20153;-62
2022/06/15 03:06:48;;;;;;;1.23;1.00;;;25.20;45.40;;;;;;5036418;28;20080;-64
2022/06/15 03:09:14;;;;;;;1.33;1.00;;;25.20;45.40;;;;;;5037519;28;20033;-66
2022/06/15 03:11:40;;;;;;;1.35;0.90;;;25.20;45.40;;;;;;5039637;28;20120;-64
2022/06/15 03:14:06;;;;;;;1.10;0.90;;;25.10;45.30;;;;;;5039830;28;20032;-65
2022/06/15 03:16:32;;;;;;;1.10;0.82;;;25.10;45.30;;;;;;5038257;28;20063;-65
2022/06/15 03:18:58;;;;;;;0.88;0.80;;;25.10;45.40;;;;;;5040144;28;20060;-64
2022/06/15 03:21:23;;;;;;;1.10;0.90;;;25.10;45.40;;;;;;5039598;28;20028;-65
2022/06/15 03:23:49;;;;;;;1.08;0.80;;;25.10;45.40;;;;;;5037134;28;20068;-62
2022/06/15 03:26:15;;;;;;;0.98;0.88;;;25.10;45.40;;;;;;5039761;28;20460;-63
2022/06/15 03:28:40;;;;;;;1.30;1.05;;;25.10;45.40;;;;;;5038742;28;20048;-64
2022/06/15 03:31:06;;;;;;;1.00;0.85;;;25.10;45.40;;;;;;5034918;28;20025;-65
2022/06/15 03:33:32;;;;;;;1.05;0.90;;;25.10;45.40;;;;;;5033534;28;20037;-66
2022/06/15 03:35:58;;;;;;;1.00;0.70;;;25.10;45.40;;;;;;5036163;28;20159;-62
2022/06/15 03:38:25;;;;;;;1.10;0.82;;;25.10;45.40;;;;;;5037041;28;20056;-61
2022/06/15 03:40:51;;;;;;;1.15;0.90;;;25.10;45.50;;;;;;5038981;28;20043;-66
2022/06/15 03:43:19;;;;;;;1.17;0.80;;;25.10;45.40;;;;;;5038218;28;20029;-64
2022/06/15 03:45:44;;;;;;;1.13;0.80;;;25.10;45.40;;;;;;5036296;28;20512;-66
2022/06/15 03:48:11;;;;;;;1.10;0.82;;;25.10;45.40;;;;;;5036063;28;20025;-64
2022/06/15 03:50:37;;;;;;;1.00;0.90;;;25.10;45.40;;;;;;5038068;28;20206;-64
2022/06/15 03:53:05;;;;;;;1.45;0.90;;;25.10;45.40;;;;;;5035044;28;20036;-65
2022/06/15 03:55:31;;;;;;;0.85;0.80;;;25.10;45.40;;;;;;5036264;28;20037;-65
2022/06/15 03:57:57;;;;;;;1.13;0.90;;;25.10;45.40;;;;;;5035739;28;20086;-67
2022/06/15 04:00:25;;;;;;;1.33;1.00;;;25.10;45.40;;;;;;5032561;28;20119;-67
2022/06/15 04:02:52;;;;;;;1.92;1.23;;;25.10;45.30;;;;;;5039262;28;20717;-65
2022/06/15 04:05:24;;;;;;;3.92;2.08;;;25.00;43.80;;;;;;5038023;28;20053;-64
2022/06/15 04:10:35;;;;;;;3.05;1.80;;;24.90;43.40;;;;;;5038102;28;20094;-63
2022/06/15 04:13:02;;;;;;;3.42;1.90;;;24.90;42.40;;;;;;5034370;28;20025;-64
2022/06/15 04:15:28;;;;;;;3.20;2.17;;;24.80;42.50;;;;;;5038562;28;20062;-64
2022/06/15 04:17:53;;;;;;;3.53;1.90;;;24.80;42.60;;;;;;5037563;28;20041;-66
2022/06/15 04:20:31;;;;;;;3.22;1.98;;;24.80;42.40;;;;;;5038076;28;20016;-62
2022/06/15 04:23:17;;;;;;;2.58;1.65;;;24.70;42.10;;;;;;5038089;28;20961;-65
2022/06/15 04:25:47;;;;;;;3.80;1.98;;;24.70;42.50;;;;;;5037730;28;20032;-66
2022/06/15 04:28:15;;;;;;;2.33;1.80;;;24.60;42.20;;;;;;5037192;28;20120;-63
2022/06/15 04:30:41;;;;;;;3.53;2.10;;;24.50;42.10;;;;;;5038132;28;20047;-65
2022/06/15 04:33:09;;;;;;;3.03;1.88;;;24.50;42.30;;;;;;5040408;28;20112;-63
2022/06/15 04:35:35;;;;;;;2.90;1.60;;;24.50;42.50;;;;;;5034806;28;20386;-65
2022/06/15 04:38:01;;;;;;;3.65;1.80;;;24.40;42.30;;;;;;5037382;28;20131;-63
2022/06/15 04:40:27;;;;;;;3.72;2.10;;;24.40;42.80;;;;;;5036046;28;20438;-67
2022/06/15 04:42:52;;;;;;;2.80;2.00;;;24.30;42.90;;;;;;5037568;28;20373;-63
2022/06/15 04:45:18;;;;;;;4.60;1.95;;;24.40;43.00;;;;;;5037775;28;20044;-63
2022/06/15 04:47:44;;;;;;;3.85;2.30;;;24.30;43.30;;;;;;5035443;28;20670;-60
2022/06/15 04:50:13;;;;;;;4.03;2.40;;;24.30;43.50;;;;;;5038594;28;20036;-64
2022/06/15 04:52:43;;;;;;;4.53;2.30;;;24.30;43.60;;;;;;5036778;28;20508;-65
2022/06/15 04:55:11;;;;;;;3.90;2.40;;;24.30;43.60;;;;;;5035819;28;20040;-64
2022/06/15 04:57:37;;;;;;;3.38;2.08;;;24.30;43.70;;;;;;5034235;28;20024;-62
2022/06/15 05:00:12;;;;;;;3.40;1.90;;;24.20;43.80;;;;;;5036395;28;20491;-65
2022/06/15 05:02:38;;;;;;;3.85;2.40;;;24.10;44.00;;;;;;5036839;28;20025;-64
2022/06/15 05:05:04;;;;;;;3.58;2.30;;;23.90;44.40;;;;;;5035632;28;20081;-65
2022/06/15 05:07:30;;;;;;;4.82;2.65;;;23.90;44.70;;;;;;5034920;28;20503;-65
2022/06/15 05:09:56;;;;;;;4.38;1.90;;;23.90;44.70;;;;;;5016174;28;20025;-66
2022/06/15 05:12:23;;;;;;;4.47;2.30;;;23.80;44.90;;;;;;5036532;28;20143;-64
2022/06/15 05:14:48;;;;;;;4.57;2.10;;;23.80;45.00;;;;;;5037221;28;20037;-64
2022/06/15 05:17:20;;;;;;;3.25;2.08;;;23.80;45.20;;;;;;5036703;28;20589;-64
2022/06/15 05:19:45;;;;;;;3.30;2.13;;;23.70;45.50;;;;;;5035703;28;20036;-64
2022/06/15 05:22:11;;;;;;;3.08;2.03;;;23.70;45.60;;;;;;5028116;28;20090;-65
2022/06/15 05:24:37;;;;;;;3.47;2.17;;;23.70;45.60;;;;;;5033803;28;20055;-64
2022/06/15 05:27:04;;;;;;;3.10;2.00;;;23.70;45.60;;;;;;5036582;28;20025;-65
2022/06/15 05:29:30;;;;;;;2.78;1.88;;;23.70;45.50;;;;;;5034632;28;20638;-65
2022/06/15 05:31:56;;;;;;;3.38;2.00;;;23.70;45.50;;;;;;5035572;28;20477;-65
2022/06/15 05:34:23;;;;;;;2.80;1.85;;;23.80;45.50;;;;;;5035474;28;20082;-64
2022/06/15 05:36:49;;;;;;;3.10;1.75;;;23.80;45.50;;;;;;5035805;28;20166;-63
2022/06/15 05:39:15;;;;;;;2.78;2.00;;;23.80;45.40;;;;;;5033918;28;20037;-60
2022/06/15 05:41:41;;;;;;;2.45;1.63;;;23.80;45.40;;;;;;5038476;28;20037;-61
2022/06/15 05:46:35;;;;;;;2.25;1.60;;;23.80;45.40;;;;;;5036813;28;20167;-63
2022/06/15 05:49:02;;;;;;;2.53;1.58;;;23.80;45.40;;;;;;5035667;28;20796;-63
2022/06/15 05:51:28;;;;;;;2.60;1.73;;;23.90;45.40;;;;;;5034950;28;20040;-64
2022/06/15 05:53:54;;;;;;;2.78;1.73;;;23.90;45.40;;;;;;5034331;28;20028;-65
2022/06/15 05:56:22;;;;;;;2.50;1.50;;;23.80;45.30;;;;;;5036346;28;20037;-63
2022/06/15 05:58:49;;;;;;;2.38;1.50;;;23.90;45.40;;;;;;5033930;28;21047;-61
2022/06/15 06:01:24;;;;;;;2.60;1.58;;;23.90;45.40;;;;;;5037835;28;20126;-65
2022/06/15 06:03:50;;;;;;;2.63;1.50;;;23.90;45.30;;;;;;5035672;28;20029;-66
2022/06/15 06:06:16;;;;;;;2.80;1.70;;;23.90;45.30;;;;;;5035002;28;20108;-60
2022/06/15 06:08:41;;;;;;;2.75;1.73;;;23.90;45.30;;;;;;5034068;28;20029;-64
2022/06/15 06:11:07;;;;;;;2.25;1.48;;;23.90;45.30;;;;;;5034590;28;20074;-65
2022/06/15 06:13:33;;;;;;;2.38;1.50;;;23.90;45.30;;;;;;5035989;28;20208;-65
2022/06/15 06:15:58;;;;;;;2.03;1.50;;;23.90;45.30;;;;;;5035017;28;20056;-61
2022/06/15 06:18:25;;;;;;;2.53;1.60;;;23.90;45.30;;;;;;5033532;28;20108;-64
2022/06/15 06:20:51;;;;;;;2.20;1.40;;;23.90;45.30;;;;;;5034968;28;20028;-65
2022/06/15 06:23:17;;;;;;;2.42;1.60;;;23.90;45.30;;;;;;5015164;28;20017;-64
2022/06/15 06:25:44;;;;;;;2.90;1.55;;;23.90;45.30;;;;;;5034493;28;20028;-61
2022/06/15 06:28:35;;;;;;;2.30;1.45;;;23.90;45.30;;;;;;5037730;28;20047;-65
2022/06/15 06:31:03;;;;;;;2.15;1.45;;;23.90;45.40;;;;;;5033029;28;20467;-65
2022/06/15 06:33:31;;;;;;;2.00;1.50;;;23.90;45.40;;;;;;5036174;28;20511;-63
2022/06/15 06:36:00;;;;;;;1.90;1.30;;;23.90;45.30;;;;;;5034959;28;20485;-63
2022/06/15 06:38:25;;;;;;;2.35;1.60;;;23.90;45.40;;;;;;5033890;28;20457;-65
2022/06/15 06:40:52;;;;;;;1.73;1.30;;;23.90;45.40;;;;;;5033608;28;20036;-65
2022/06/15 06:43:18;;;;;;;2.58;1.45;;;24.00;45.40;;;;;;5034412;28;20045;-64
2022/06/15 06:45:43;;;;;;;2.67;1.42;;;23.90;45.40;;;;;;5037821;28;20037;-63
2022/06/15 06:48:09;;;;;;;2.28;1.40;;;23.90;45.40;;;;;;5039415;28;20494;-61
2022/06/15 06:50:37;;;;;;;2.15;1.52;;;23.90;45.40;;;;;;5039688;28;22150;-64
2022/06/15 06:53:03;;;;;;;2.38;1.30;;;24.00;45.50;;;;;;5040113;28;20120;-63
2022/06/15 06:55:30;;;;;;;1.98;1.30;;;23.90;45.40;;;;;;5037194;28;20029;-65
2022/06/15 06:57:57;;;;;;;1.77;1.25;;;23.90;46.00;;;;;;5037849;28;20077;-64
2022/06/15 07:00:23;;;;;;;2.10;1.40;;;23.90;45.50;;;;;;5039144;28;20041;-65
2022/06/15 07:02:50;;;;;;;1.92;1.42;;;23.90;45.50;;;;;;5039855;28;20013;-63
2022/06/15 07:05:17;;;;;;;1.92;1.30;;;24.00;45.50;;;;;;5039494;28;20043;-63
2022/06/15 07:07:42;;;;;;;2.53;1.60;;;24.00;45.50;;;;;;5039085;28;20044;-64
2022/06/15 07:10:08;;;;;;;2.20;1.50;;;24.00;45.60;;;;;;5037417;28;20041;-63
2022/06/15 07:12:36;;;;;;;1.70;1.35;;;24.00;45.60;;;;;;5038356;28;20097;-64
2022/06/15 07:15:03;;;;;;;2.38;1.58;;;24.00;45.60;;;;;;5037187;28;20019;-60
2022/06/15 07:17:29;;;;;;;2.28;1.33;;;24.00;45.60;;;;;;5038240;28;20020;-59
2022/06/15 07:19:55;;;;;;;2.13;1.50;;;24.00;45.60;;;;;;5037597;28;20037;-63
2022/06/15 07:22:21;;;;;;;2.35;1.42;;;24.00;45.60;;;;;;5038861;28;20110;-64
2022/06/15 07:24:46;;;;;;;2.03;1.42;;;24.00;45.60;;;;;;5034632;28;20032;-63
2022/06/15 07:27:13;;;;;;;2.15;1.40;;;24.00;45.60;;;;;;5035887;28;20040;-64
2022/06/15 07:29:38;;;;;;;2.50;1.60;;;24.00;45.60;;;;;;5038633;28;20027;-63
2022/06/15 07:32:05;;;;;;;2.35;1.45;;;24.00;45.70;;;;;;5039488;28;20377;-63
2022/06/15 07:34:30;;;;;;;2.10;1.35;;;24.00;45.70;;;;;;5037877;28;20417;-64
2022/06/15 07:36:56;;;;;;;1.50;1.30;;;24.00;45.70;;;;;;5038416;28;20041;-61
2022/06/15 07:39:27;;;;;;;2.17;1.40;;;24.00;45.70;;;;;;5038091;28;20035;-62
2022/06/15 07:41:55;;;;;;;2.20;1.42;;;24.00;45.70;;;;;;5039144;28;20051;-61
2022/06/15 07:44:22;;;;;;;2.55;1.70;;;24.00;45.70;;;;;;5038055;28;20029;-64
2022/06/15 07:49:54;;;;;;;1.90;1.45;;;24.00;45.70;;;;;;5038473;28;20036;-63
2022/06/15 07:52:19;;;;;;;1.70;1.30;;;24.00;45.70;;;;;;5037137;28;20043;-64
2022/06/15 07:54:44;;;;;;;1.80;1.30;;;24.00;45.70;;;;;;5034964;28;20040;-61
2022/06/15 07:57:10;;;;;;;1.98;1.40;;;24.00;45.80;;;;;;5038452;28;20029;-64
2022/06/15 07:59:35;;;;;;;2.33;1.50;;;24.00;45.70;;;;;;5038359;28;20135;-63
2022/06/15 08:02:01;;;;;;;2.20;1.38;;;24.00;45.70;;;;;;5038692;28;20119;-65
2022/06/15 08:04:27;;;;;;;2.67;1.60;;;24.00;45.80;;;;;;5037959;28;20025;-63
2022/06/15 08:06:52;;;;;;;2.00;1.33;;;24.00;45.80;;;;;;5035510;28;20346;-65
2022/06/15 08:09:18;;;;;;;2.55;1.25;;;24.00;45.80;;;;;;5033343;28;20072;-64
2022/06/15 08:14:33;;;;;;;1.92;1.20;;;24.00;45.80;;;;;;5039418;28;20120;-64
2022/06/15 08:16:59;;;;;;;2.55;1.50;;;24.00;45.80;;;;;;5036711;28;20390;-63
2022/06/15 08:19:26;;;;;;;1.90;1.38;;;24.00;45.90;;;;;;5038399;28;20298;-64
2022/06/15 08:21:51;;;;;;;2.17;1.52;;;24.00;45.90;;;;;;5038164;28;20103;-64
2022/06/15 08:24:20;;;;;;;2.30;1.60;;;24.00;45.90;;;;;;5035335;28;20033;-63
2022/06/15 08:26:45;;;;;;;2.88;1.70;;;24.00;45.90;;;;;;5037713;28;20024;-64
2022/06/15 08:29:12;;;;;;;2.35;1.67;;;24.00;46.00;;;;;;5036300;28;20039;-65
2022/06/15 08:31:39;;;;;;;2.17;1.35;;;24.00;46.00;;;;;;5038000;28;20461;-61
2022/06/15 08:34:06;;;;;;;2.42;1.60;;;24.00;46.00;;;;;;5037841;28;20040;-64
2022/06/15 08:36:33;;;;;;;2.58;1.50;;;24.10;46.00;;;;;;5037399;28;20634;-63
2022/06/15 08:38:58;;;;;;;2.38;1.70;;;24.00;46.00;;;;;;5036878;28;20132;-64
2022/06/15 08:41:30;;;;;;;2.22;1.50;;;24.00;46.00;;;;;;5039794;28;20103;-64
2022/06/15 08:44:21;;;;;;;2.60;1.70;;;24.00;46.00;;;;;;5036908;28;20021;-63
2022/06/15 08:47:31;;;;;;;2.55;1.70;;;24.10;46.10;;;;;;5034044;28;20044;-64
2022/06/15 08:50:12;;;;;;;2.72;1.40;;;24.00;46.00;;;;;;5032538;28;20033;-60
2022/06/15 08:53:04;;;;;;;2.75;1.70;;;24.00;46.00;;;;;;5038115;28;20025;-64
2022/06/15 08:55:49;;;;;;;3.22;1.70;;;24.00;46.00;;;;;;5003741;28;20071;-61
2022/06/15 08:58:45;;;;;;;3.47;1.70;;;24.00;46.00;;;;;;5035711;28;20067;-64
2022/06/15 09:01:34;;;;;;;2.08;1.50;;;24.00;46.00;;;;;;5020588;28;20033;-64
2022/06/15 09:04:11;;;;;;;2.28;1.40;;;24.10;46.10;;;;;;5037565;28;20052;-61
2022/06/15 09:07:17;;;;;;;2.75;1.65;;;24.00;46.00;;;;;;5037516;28;20104;-64
2022/06/15 09:09:54;;;;;;;3.28;1.40;;;24.10;46.00;;;;;;5035987;28;20040;-64
2022/06/15 09:12:53;;;;;;;2.10;1.33;;;24.10;46.10;;;;;;5039495;28;20491;-60
2022/06/15 09:15:48;;;;;;;2.17;1.30;;;24.10;46.00;;;;;;5036123;28;20063;-64
2022/06/15 09:18:50;;;;;;;2.50;1.48;;;24.10;46.00;;;;;;5039289;28;20096;-60
2022/06/15 09:21:25;;;;;;;1.92;1.13;;;24.10;46.10;;;;;;5032981;28;20033;-64
2022/06/15 09:24:09;;;;;;;2.28;1.35;;;24.10;46.00;;;;;;5033057;28;20086;-64
2022/06/15 09:26:52;;;;;;;2.15;1.50;;;24.10;46.00;;;;;;5037611;28;20107;-60
2022/06/15 09:29:28;;;;;;;2.25;1.30;;;24.10;46.10;;;;;;5035465;28;20085;-61
2022/06/15 09:31:59;;;;;;;2.40;1.50;;;24.10;46.10;;;;;;5037468;28;20079;-62
2022/06/15 09:34:36;;;;;;;2.10;1.40;;;24.10;46.10;;;;;;5036966;28;20037;-64
2022/06/15 09:37:14;;;;;;;2.33;1.33;;;24.10;46.10;;;;;;5036133;28;20037;-63
2022/06/15 09:39:40;;;;;;;2.00;1.30;;;24.10;46.10;;;;;;5033596;28;20028;-61
2022/06/15 09:42:33;;;;;;;2.30;1.40;;;24.10;46.10;;;;;;5036375;28;20040;-64
2022/06/15 09:45:17;;;;;;;2.35;1.40;;;24.10;46.10;;;;;;5035651;28;20498;-61
2022/06/15 09:48:01;;;;;;;2.15;1.30;;;24.10;46.10;;;;;;5036535;28;20485;-65
2022/06/15 09:50:48;;;;;;;2.47;1.48;;;24.10;46.10;;;;;;5036942;28;20798;-62
2022/06/15 09:53:34;;;;;;;2.38;1.48;;;24.10;46.10;;;;;;5036798;28;20516;-64
2022/06/15 09:56:07;;;;;;;2.00;1.33;;;24.10;46.10;;;;;;5036087;28;20028;-62
2022/06/15 09:58:55;;;;;;;2.00;1.40;;;24.10;46.10;;;;;;5035356;28;20025;-63
2022/06/15 10:01:23;;;;;;;1.63;1.30;;;24.10;46.10;;;;;;5034262;28;20041;-64
2022/06/15 10:03:52;;;;;;;2.42;1.50;;;24.10;46.10;;;;;;5036860;28;20039;-61
2022/06/15 10:06:24;;;;;;;1.80;1.35;;;24.10;46.10;;;;;;5035249;28;20029;-62
2022/06/15 10:08:51;;;;;;;2.00;1.30;;;24.10;46.10;;;;;;5034708;28;20063;-62
2022/06/15 10:11:32;;;;;;;2.13;1.30;;;24.10;46.10;;;;;;5039238;28;20038;-62
2022/06/15 10:14:18;;;;;;;2.25;1.30;;;24.10;46.10;;;;;;5014902;28;20032;-63
2022/06/15 10:16:57;;;;;;;2.15;1.20;;;24.10;46.20;;;;;;5037045;28;20055;-64
2022/06/15 10:19:25;;;;;;;1.67;1.25;;;24.10;46.20;;;;;;5040185;28;20040;-64
2022/06/15 10:21:55;;;;;;;1.80;1.23;;;24.10;46.10;;;;;;5041240;28;20489;-65
2022/06/15 10:24:28;;;;;;;1.95;1.13;;;24.10;46.20;;;;;;5035727;28;20095;-64
2022/06/15 10:27:15;;;;;;;2.13;1.38;;;24.10;46.20;;;;;;5035592;28;20101;-64
2022/06/15 10:29:41;;;;;;;1.95;1.27;;;24.10;46.20;;;;;;5040143;28;20028;-62
2022/06/15 10:32:09;;;;;;;2.25;1.23;;;24.10;46.70;;;;;;5039908;28;20106;-63
2022/06/15 10:34:48;;;;;;;1.80;1.17;;;24.10;46.20;;;;;;5036040;28;20033;-64
2022/06/15 10:37:21;;;;;;;1.80;1.20;;;24.10;46.20;;;;;;5036448;28;20037;-64
2022/06/15 10:39:50;;;;;;;1.88;1.20;;;24.10;46.30;;;;;;5037128;28;20037;-63
2022/06/15 10:42:22;;;;;;;2.38;1.33;;;24.10;46.30;;;;;;5040455;28;20029;-64
2022/06/15 10:44:55;;;;;;;1.95;1.20;;;24.10;46.30;;;;;;5038771;28;20859;-63
2022/06/15 10:47:25;;;;;;;2.20;1.30;;;24.10;46.30;;;;;;5039204;28;20091;-63
2022/06/15 10:50:00;;;;;;;2.00;1.30;;;24.10;46.40;;;;;;5037630;28;20132;-64
2022/06/15 10:52:28;;;;;;;1.73;1.23;;;24.10;46.40;;;;;;5038043;28;20117;-61
2022/06/15 11:04:16;;;;;;;1.88;1.23;;;24.10;46.40;;;;;;5037689;28;20040;-63
2022/06/15 11:06:49;;;;;;;2.78;1.30;;;24.10;46.40;;;;;;5037848;28;20027;-63
2022/06/15 11:09:30;;;;;;;1.73;1.20;;;24.10;46.40;;;;;;5034920;28;20036;-61
2022/06/15 11:12:00;;;;;;;2.15;1.27;;;24.10;46.40;;;;;;5037809;28;20145;-65
2022/06/15 11:14:43;;;;;;;1.33;1.10;;;24.20;46.40;;;;;;5038926;28;20754;-64
2022/06/15 11:20:06;;;;;;;1.70;1.10;;;24.20;46.40;;;;;;5036498;28;20067;-65
2022/06/15 11:22:33;;;;;;;1.80;1.15;;;24.10;46.40;;;;;;5036778;28;20020;-64
2022/06/15 11:25:16;;;;;;;2.05;1.30;;;24.20;46.40;;;;;;5034376;28;20035;-63
2022/06/15 11:27:48;;;;;;;1.73;1.27;;;24.20;46.50;;;;;;5035401;28;20476;-64
2022/06/15 11:30:33;;;;;;;1.50;1.10;;;24.20;46.50;;;;;;5036408;28;20033;-64
2022/06/15 11:33:02;;;;;;;2.00;1.20;;;24.20;46.50;;;;;;5037437;28;20052;-63
2022/06/15 11:35:36;;;;;;;2.10;1.25;;;24.20;47.00;;;;;;5035952;28;20037;-64
2022/06/15 11:38:14;;;;;;;1.73;1.20;;;24.20;46.40;;;;;;5037163;28;20043;-63
2022/06/15 11:40:54;;;;;;;1.70;1.23;;;24.20;46.40;;;;;;5037304;28;21351;-59
2022/06/15 11:43:33;;;;;;;1.85;1.35;;;24.20;46.40;;;;;;5036790;28;20567;-64
2022/06/15 11:46:10;;;;;;;;;;;24.20;46.50;;;;;;5018803;28;20033;-62
2022/06/15 11:48:54;;;;;;;1.88;1.20;;;24.20;46.50;;;;;;5036166;28;20014;-63
2022/06/15 11:51:46;;;;;;;1.80;1.20;;;24.20;46.50;;;;;;5037577;28;20029;-63
2022/06/15 11:54:19;;;;;;;1.90;1.30;;;24.20;46.50;;;;;;5014750;28;20713;-63
2022/06/15 11:57:11;;;;;;;1.67;1.15;;;24.20;46.50;;;;;;5034064;28;20036;-61
2022/06/15 11:59:46;;;;;;;2.13;1.30;;;24.20;46.50;;;;;;5039730;28;20102;-64
2022/06/15 12:02:30;;;;;;;1.67;1.20;;;24.20;46.50;;;;;;5037758;28;20052;-64
2022/06/15 12:05:08;;;;;;;2.03;1.20;;;24.20;46.50;;;;;;5039023;28;20025;-61
2022/06/15 12:07:41;;;;;;;1.58;1.13;;;24.20;46.50;;;;;;5037037;28;20029;-64
2022/06/15 12:10:17;;;;;;;2.08;1.20;;;24.20;46.50;;;;;;5036310;28;20033;-63
2022/06/15 12:12:53;;;;;;;2.08;1.20;;;24.20;46.50;;;;;;5038815;28;20055;-62
2022/06/15 12:15:38;;;;;;;1.90;1.25;;;24.20;46.50;;;;;;5037335;28;20032;-63
2022/06/15 12:18:31;;;;;;;1.92;1.30;;;24.30;46.50;;;;;;5031952;28;20024;-65
2022/06/15 12:21:02;;;;;;;1.30;1.08;;;24.20;46.50;;;;;;5036972;28;20028;-64
2022/06/15 12:23:36;;;;;;;1.27;1.13;;;24.30;46.50;;;;;;5036444;28;20032;-65
2022/06/15 12:26:26;;;;;;;1.55;1.00;;;24.30;46.60;;;;;;5036979;28;20032;-64
2022/06/15 12:29:25;;;;;;;2.05;1.20;;;24.30;46.50;;;;;;5037339;28;20029;-63
2022/06/15 12:32:38;;;;;;;1.90;1.30;;;24.30;46.50;;;;;;5038398;28;20051;-63
2022/06/15 12:35:32;;;;;;;1.75;1.10;;;24.30;46.50;;;;;;5034076;28;20040;-65
2022/06/15 12:38:43;;;;;;;1.20;1.00;;;24.30;46.50;;;;;;5031489;28;20351;-64
2022/06/15 12:44:08;;;;;;;1.45;1.20;;;24.30;46.50;;;;;;5035488;28;20829;-63
2022/06/15 12:46:35;;;;;;;1.95;1.10;;;24.30;46.50;;;;;;5038905;28;20036;-63
2022/06/15 12:49:36;;;;;;;1.63;1.13;;;24.30;46.50;;;;;;5034364;28;20105;-60
2022/06/15 12:52:29;;;;;;;1.58;1.13;;;24.30;46.60;;;;;;5035589;28;20029;-65
2022/06/15 12:55:17;;;;;;;1.83;1.10;;;24.30;46.60;;;;;;5034463;28;20044;-62
2022/06/15 12:57:53;;;;;;;2.05;1.10;;;24.30;46.60;;;;;;5038853;28;21064;-63
2022/06/15 13:00:27;;;;;;;2.78;1.30;;;24.30;46.50;;;;;;5036308;28;20079;-64
2022/06/15 13:03:02;;;;;;;1.42;1.05;;;24.40;47.20;;;;;;5036488;28;20033;-64
2022/06/15 13:05:35;;;;;;;1.45;1.00;;;24.40;46.90;;;;;;5034158;28;20029;-64
2022/06/15 13:08:16;;;;;;;1.48;1.17;;;24.40;46.70;;;;;;5037856;28;20033;-61
2022/06/15 13:10:53;;;;;;;2.35;1.05;;;24.40;46.70;;;;;;5033618;28;20029;-62
2022/06/15 13:13:27;;;;;;;2.00;1.42;;;24.40;46.70;;;;;;5033856;28;20047;-64
2022/06/15 13:16:08;;;;;;;1.70;1.13;;;24.40;46.70;;;;;;5036454;28;20032;-65
2022/06/15 13:18:48;;;;;;;1.92;1.27;;;24.40;46.70;;;;;;5036567;28;20063;-61
2022/06/15 13:21:22;;;;;;;1.60;1.13;;;24.40;46.70;;;;;;5036347;28;20028;-62
2022/06/15 13:24:09;;;;;;;1.58;1.00;;;24.40;46.70;;;;;;5032666;28;20025;-62
2022/06/15 13:26:37;;;;;;;1.55;1.10;;;24.40;46.70;;;;;;5032466;28;20051;-61
2022/06/15 13:29:06;;;;;;;2.17;1.20;;;24.40;46.70;;;;;;5033246;28;21050;-64
2022/06/15 13:31:40;;;;;;;1.83;1.20;;;24.50;46.70;;;;;;5033020;28;20037;-62
2022/06/15 13:34:09;;;;;;;1.27;1.00;;;24.50;46.80;;;;;;5032149;28;20040;-64
2022/06/15 13:36:36;;;;;;;1.65;1.20;;;24.50;46.90;;;;;;5037694;28;20032;-64
2022/06/15 13:39:23;;;;;;;1.80;1.27;;;24.50;46.90;;;;;;5033456;28;20033;-64
2022/06/15 13:42:27;;;;;;;1.10;1.00;;;24.50;46.90;;;;;;5034217;28;20041;-63
2022/06/15 13:45:11;;;;;;;1.63;1.10;;;24.50;47.00;;;;;;5034195;28;20029;-64